sensor_id;sensor_type;location;lat;lon;timestamp;P1;durP1;ratioP1;P2;durP2;ratioP2
46765;SDS011;32527;51.986;5.842;2022-09-28T00:03:48;31.63;;;17.40;;
46765;SDS011;32527;51.986;5.842;2022-09-28T00:06:17;26.92;;;16.83;;
46765;SDS011;32527;51.986;5.842;2022-09-28T00:08:44;32.03;;;18.88;;
46765;SDS011;32527;51.986;5.842;2022-09-28T00:11:22;24.63;;;16.10;;
46765;SDS011;32527;51.986;5.842;2022-09-28T00:13:54;32.75;;;17.98;;
46765;SDS011;32527;51.986;5.842;2022-09-28T00:16:30;29.17;;;15.93;;
46765;SDS011;32527;51.986;5.842;2022-09-28T00:18:58;29.60;;;17.27;;
46765;SDS011;32527;51.986;5.842;2022-09-28T00:21:28;31.45;;;17.05;;
46765;SDS011;32527;51.986;5.842;2022-09-28T00:23:56;26.52;;;15.82;;
46765;SDS011;32527;51.986;5.842;2022-09-28T00:26:55;26.85;;;16.88;;
46765;SDS011;32527;51.986;5.842;2022-09-28T00:29:29;28.45;;;17.17;;
46765;SDS011;32527;51.986;5.842;2022-09-28T00:32:15;27.30;;;15.77;;
46765;SDS011;32527;51.986;5.842;2022-09-28T00:34:41;30.05;;;15.75;;
46765;SDS011;32527;51.986;5.842;2022-09-28T00:37:12;30.17;;;15.48;;
46765;SDS011;32527;51.986;5.842;2022-09-28T00:39:39;26.38;;;15.90;;
46765;SDS011;32527;51.986;5.842;2022-09-28T00:42:24;28.15;;;17.23;;
46765;SDS011;32527;51.986;5.842;2022-09-28T00:47:23;26.77;;;17.05;;
46765;SDS011;32527;51.986;5.842;2022-09-28T00:55:55;27.35;;;15.77;;
46765;SDS011;32527;51.986;5.842;2022-09-28T00:58:32;26.35;;;14.90;;
46765;SDS011;32527;51.986;5.842;2022-09-28T01:01:02;26.85;;;14.60;;
46765;SDS011;32527;51.986;5.842;2022-09-28T01:03:28;28.17;;;15.73;;
46765;SDS011;32527;51.986;5.842;2022-09-28T01:05:55;29.90;;;15.68;;
46765;SDS011;32527;51.986;5.842;2022-09-28T01:08:25;26.60;;;15.63;;
46765;SDS011;32527;51.986;5.842;2022-09-28T01:10:52;26.90;;;15.43;;
46765;SDS011;32527;51.986;5.842;2022-09-28T01:13:18;34.25;;;15.52;;
46765;SDS011;32527;51.986;5.842;2022-09-28T01:15:52;28.42;;;16.08;;
46765;SDS011;32527;51.986;5.842;2022-09-28T01:21:19;28.77;;;15.90;;
46765;SDS011;32527;51.986;5.842;2022-09-28T01:23:52;29.05;;;15.15;;
46765;SDS011;32527;51.986;5.842;2022-09-28T01:28:49;32.45;;;14.95;;
46765;SDS011;32527;51.986;5.842;2022-09-28T01:31:19;22.52;;;14.10;;
46765;SDS011;32527;51.986;5.842;2022-09-28T01:34:00;30.45;;;14.88;;
46765;SDS011;32527;51.986;5.842;2022-09-28T01:36:35;27.50;;;15.75;;
46765;SDS011;32527;51.986;5.842;2022-09-28T01:39:08;30.83;;;16.50;;
46765;SDS011;32527;51.986;5.842;2022-09-28T01:41:39;29.15;;;14.55;;
46765;SDS011;32527;51.986;5.842;2022-09-28T01:44:09;28.15;;;15.50;;
46765;SDS011;32527;51.986;5.842;2022-09-28T01:46:39;29.25;;;15.55;;
46765;SDS011;32527;51.986;5.842;2022-09-28T01:49:13;28.85;;;14.80;;
46765;SDS011;32527;51.986;5.842;2022-09-28T01:51:46;25.02;;;15.05;;
46765;SDS011;32527;51.986;5.842;2022-09-28T01:54:21;22.48;;;13.63;;
46765;SDS011;32527;51.986;5.842;2022-09-28T01:56:57;25.73;;;13.65;;
46765;SDS011;32527;51.986;5.842;2022-09-28T01:59:32;25.23;;;13.88;;
46765;SDS011;32527;51.986;5.842;2022-09-28T02:02:11;28.48;;;14.15;;
46765;SDS011;32527;51.986;5.842;2022-09-28T02:04:50;27.77;;;14.55;;
46765;SDS011;32527;51.986;5.842;2022-09-28T02:07:31;29.17;;;14.00;;
46765;SDS011;32527;51.986;5.842;2022-09-28T02:10:04;25.15;;;12.88;;
46765;SDS011;32527;51.986;5.842;2022-09-28T02:12:42;25.98;;;13.75;;
46765;SDS011;32527;51.986;5.842;2022-09-28T02:15:25;26.20;;;14.63;;
46765;SDS011;32527;51.986;5.842;2022-09-28T02:17:58;28.65;;;15.32;;
46765;SDS011;32527;51.986;5.842;2022-09-28T02:20:25;24.15;;;14.02;;
46765;SDS011;32527;51.986;5.842;2022-09-28T02:22:52;30.80;;;14.70;;
46765;SDS011;32527;51.986;5.842;2022-09-28T02:25:25;27.77;;;14.48;;
46765;SDS011;32527;51.986;5.842;2022-09-28T02:28:00;26.33;;;14.45;;
46765;SDS011;32527;51.986;5.842;2022-09-28T02:30:28;28.00;;;15.70;;
46765;SDS011;32527;51.986;5.842;2022-09-28T02:32:56;31.90;;;16.40;;
46765;SDS011;32527;51.986;5.842;2022-09-28T02:35:27;33.33;;;16.52;;
46765;SDS011;32527;51.986;5.842;2022-09-28T02:37:54;30.20;;;15.45;;
46765;SDS011;32527;51.986;5.842;2022-09-28T02:40:22;29.17;;;16.10;;
46765;SDS011;32527;51.986;5.842;2022-09-28T02:43:11;43.65;;;17.98;;
46765;SDS011;32527;51.986;5.842;2022-09-28T02:48:52;34.17;;;18.23;;
46765;SDS011;32527;51.986;5.842;2022-09-28T02:54:05;34.60;;;17.50;;
46765;SDS011;32527;51.986;5.842;2022-09-28T02:56:49;35.40;;;17.05;;
46765;SDS011;32527;51.986;5.842;2022-09-28T03:02:32;34.70;;;16.40;;
46765;SDS011;32527;51.986;5.842;2022-09-28T03:05:21;28.05;;;15.93;;
46765;SDS011;32527;51.986;5.842;2022-09-28T03:10:48;34.13;;;16.98;;
46765;SDS011;32527;51.986;5.842;2022-09-28T03:13:21;27.05;;;15.35;;
46765;SDS011;32527;51.986;5.842;2022-09-28T03:15:48;29.13;;;16.30;;
46765;SDS011;32527;51.986;5.842;2022-09-28T03:18:15;30.65;;;16.63;;
46765;SDS011;32527;51.986;5.842;2022-09-28T03:20:41;28.73;;;15.50;;
46765;SDS011;32527;51.986;5.842;2022-09-28T03:23:07;27.60;;;15.18;;
46765;SDS011;32527;51.986;5.842;2022-09-28T03:25:33;25.98;;;15.02;;
46765;SDS011;32527;51.986;5.842;2022-09-28T03:28:00;28.05;;;15.23;;
46765;SDS011;32527;51.986;5.842;2022-09-28T03:30:30;30.55;;;14.18;;
46765;SDS011;32527;51.986;5.842;2022-09-28T03:32:57;28.85;;;14.32;;
46765;SDS011;32527;51.986;5.842;2022-09-28T03:35:25;26.48;;;14.95;;
46765;SDS011;32527;51.986;5.842;2022-09-28T03:37:54;28.98;;;13.90;;
46765;SDS011;32527;51.986;5.842;2022-09-28T03:40:21;23.75;;;14.60;;
46765;SDS011;32527;51.986;5.842;2022-09-28T03:42:48;30.52;;;13.90;;
46765;SDS011;32527;51.986;5.842;2022-09-28T03:45:14;21.98;;;13.98;;
46765;SDS011;32527;51.986;5.842;2022-09-28T03:47:43;23.77;;;14.20;;
46765;SDS011;32527;51.986;5.842;2022-09-28T03:50:10;22.08;;;12.88;;
46765;SDS011;32527;51.986;5.842;2022-09-28T03:52:36;21.60;;;12.20;;
46765;SDS011;32527;51.986;5.842;2022-09-28T03:55:02;21.70;;;11.77;;
46765;SDS011;32527;51.986;5.842;2022-09-28T03:57:28;23.23;;;12.10;;
46765;SDS011;32527;51.986;5.842;2022-09-28T03:59:54;20.48;;;11.07;;
46765;SDS011;32527;51.986;5.842;2022-09-28T04:02:20;19.75;;;11.90;;
46765;SDS011;32527;51.986;5.842;2022-09-28T04:04:46;16.05;;;9.52;;
46765;SDS011;32527;51.986;5.842;2022-09-28T04:07:13;23.02;;;12.80;;
46765;SDS011;32527;51.986;5.842;2022-09-28T04:09:40;19.67;;;11.05;;
46765;SDS011;32527;51.986;5.842;2022-09-28T04:12:06;19.42;;;10.68;;
46765;SDS011;32527;51.986;5.842;2022-09-28T04:14:32;19.17;;;10.30;;
46765;SDS011;32527;51.986;5.842;2022-09-28T04:16:58;21.25;;;10.98;;
46765;SDS011;32527;51.986;5.842;2022-09-28T04:19:26;16.65;;;9.82;;
46765;SDS011;32527;51.986;5.842;2022-09-28T04:22:01;19.58;;;9.27;;
46765;SDS011;32527;51.986;5.842;2022-09-28T04:24:28;15.00;;;9.70;;
46765;SDS011;32527;51.986;5.842;2022-09-28T04:26:55;19.30;;;10.00;;
46765;SDS011;32527;51.986;5.842;2022-09-28T04:29:41;15.75;;;10.23;;
46765;SDS011;32527;51.986;5.842;2022-09-28T04:32:07;17.95;;;10.70;;
46765;SDS011;32527;51.986;5.842;2022-09-28T04:34:35;17.63;;;10.45;;
46765;SDS011;32527;51.986;5.842;2022-09-28T04:37:01;17.92;;;10.57;;
46765;SDS011;32527;51.986;5.842;2022-09-28T04:39:27;14.18;;;9.23;;
46765;SDS011;32527;51.986;5.842;2022-09-28T04:41:54;15.82;;;9.77;;
46765;SDS011;32527;51.986;5.842;2022-09-28T04:44:21;13.75;;;9.07;;
46765;SDS011;32527;51.986;5.842;2022-09-28T04:46:51;15.80;;;9.35;;
46765;SDS011;32527;51.986;5.842;2022-09-28T04:49:28;16.63;;;10.18;;
46765;SDS011;32527;51.986;5.842;2022-09-28T04:51:56;15.55;;;10.20;;
46765;SDS011;32527;51.986;5.842;2022-09-28T04:54:22;16.48;;;9.57;;
46765;SDS011;32527;51.986;5.842;2022-09-28T04:56:48;13.98;;;9.85;;
46765;SDS011;32527;51.986;5.842;2022-09-28T04:59:15;17.75;;;9.80;;
46765;SDS011;32527;51.986;5.842;2022-09-28T05:01:42;14.98;;;9.85;;
46765;SDS011;32527;51.986;5.842;2022-09-28T05:04:27;15.48;;;9.70;;
46765;SDS011;32527;51.986;5.842;2022-09-28T05:07:13;15.13;;;9.60;;
46765;SDS011;32527;51.986;5.842;2022-09-28T05:09:39;16.63;;;10.05;;
46765;SDS011;32527;51.986;5.842;2022-09-28T05:12:05;21.55;;;10.20;;
46765;SDS011;32527;51.986;5.842;2022-09-28T05:14:31;14.48;;;9.70;;
46765;SDS011;32527;51.986;5.842;2022-09-28T05:16:57;16.98;;;10.73;;
46765;SDS011;32527;51.986;5.842;2022-09-28T05:19:23;17.42;;;10.85;;
46765;SDS011;32527;51.986;5.842;2022-09-28T05:21:51;19.50;;;11.88;;
46765;SDS011;32527;51.986;5.842;2022-09-28T05:24:20;16.98;;;10.85;;
46765;SDS011;32527;51.986;5.842;2022-09-28T05:26:50;17.73;;;10.05;;
46765;SDS011;32527;51.986;5.842;2022-09-28T05:29:20;20.77;;;11.75;;
46765;SDS011;32527;51.986;5.842;2022-09-28T05:32:26;19.98;;;11.13;;
46765;SDS011;32527;51.986;5.842;2022-09-28T05:35:10;19.15;;;12.02;;
46765;SDS011;32527;51.986;5.842;2022-09-28T05:37:43;23.17;;;12.68;;
46765;SDS011;32527;51.986;5.842;2022-09-28T05:40:13;18.08;;;10.60;;
46765;SDS011;32527;51.986;5.842;2022-09-28T05:42:40;18.00;;;11.13;;
46765;SDS011;32527;51.986;5.842;2022-09-28T05:45:15;19.23;;;11.30;;
46765;SDS011;32527;51.986;5.842;2022-09-28T05:47:46;21.63;;;12.50;;
46765;SDS011;32527;51.986;5.842;2022-09-28T05:50:23;18.88;;;11.77;;
46765;SDS011;32527;51.986;5.842;2022-09-28T05:52:57;17.40;;;11.23;;
46765;SDS011;32527;51.986;5.842;2022-09-28T05:55:26;20.27;;;12.63;;
46765;SDS011;32527;51.986;5.842;2022-09-28T05:57:52;18.05;;;11.18;;
46765;SDS011;32527;51.986;5.842;2022-09-28T06:00:26;18.73;;;11.65;;
46765;SDS011;32527;51.986;5.842;2022-09-28T06:03:04;18.45;;;11.30;;
46765;SDS011;32527;51.986;5.842;2022-09-28T06:05:34;16.52;;;11.18;;
46765;SDS011;32527;51.986;5.842;2022-09-28T06:08:01;18.35;;;11.32;;
46765;SDS011;32527;51.986;5.842;2022-09-28T06:10:29;18.05;;;11.57;;
46765;SDS011;32527;51.986;5.842;2022-09-28T06:13:01;17.95;;;11.18;;
46765;SDS011;32527;51.986;5.842;2022-09-28T06:15:34;17.75;;;10.95;;
46765;SDS011;32527;51.986;5.842;2022-09-28T06:18:02;20.02;;;11.50;;
46765;SDS011;32527;51.986;5.842;2022-09-28T06:20:36;16.38;;;10.25;;
46765;SDS011;32527;51.986;5.842;2022-09-28T06:23:20;14.73;;;10.30;;
46765;SDS011;32527;51.986;5.842;2022-09-28T06:25:49;19.75;;;10.57;;
46765;SDS011;32527;51.986;5.842;2022-09-28T06:28:29;17.85;;;10.23;;
46765;SDS011;32527;51.986;5.842;2022-09-28T06:31:08;15.20;;;10.43;;
46765;SDS011;32527;51.986;5.842;2022-09-28T06:33:48;19.88;;;11.35;;
46765;SDS011;32527;51.986;5.842;2022-09-28T06:36:22;18.38;;;10.93;;
46765;SDS011;32527;51.986;5.842;2022-09-28T06:38:54;20.05;;;11.48;;
46765;SDS011;32527;51.986;5.842;2022-09-28T06:41:35;18.40;;;10.52;;
46765;SDS011;32527;51.986;5.842;2022-09-28T06:44:28;16.55;;;10.60;;
46765;SDS011;32527;51.986;5.842;2022-09-28T06:47:21;17.02;;;9.70;;
46765;SDS011;32527;51.986;5.842;2022-09-28T06:50:09;16.35;;;10.52;;
46765;SDS011;32527;51.986;5.842;2022-09-28T06:53:07;14.52;;;9.70;;
46765;SDS011;32527;51.986;5.842;2022-09-28T06:56:10;16.40;;;10.35;;
46765;SDS011;32527;51.986;5.842;2022-09-28T06:58:39;15.45;;;9.27;;
46765;SDS011;32527;51.986;5.842;2022-09-28T07:01:25;12.00;;;7.80;;
46765;SDS011;32527;51.986;5.842;2022-09-28T07:04:05;11.30;;;7.68;;
46765;SDS011;32527;51.986;5.842;2022-09-28T07:06:50;11.77;;;7.75;;
46765;SDS011;32527;51.986;5.842;2022-09-28T07:09:42;11.07;;;7.25;;
46765;SDS011;32527;51.986;5.842;2022-09-28T07:12:18;8.85;;;5.45;;
46765;SDS011;32527;51.986;5.842;2022-09-28T07:15:14;9.98;;;6.25;;
46765;SDS011;32527;51.986;5.842;2022-09-28T07:17:40;9.27;;;6.15;;
46765;SDS011;32527;51.986;5.842;2022-09-28T07:20:09;7.68;;;5.32;;
46765;SDS011;32527;51.986;5.842;2022-09-28T07:23:03;9.73;;;5.18;;
46765;SDS011;32527;51.986;5.842;2022-09-28T07:25:52;10.65;;;5.25;;
46765;SDS011;32527;51.986;5.842;2022-09-28T07:28:29;7.07;;;4.78;;
46765;SDS011;32527;51.986;5.842;2022-09-28T07:31:08;9.10;;;5.88;;
46765;SDS011;32527;51.986;5.842;2022-09-28T07:33:59;8.73;;;6.53;;
46765;SDS011;32527;51.986;5.842;2022-09-28T07:36:29;8.27;;;5.40;;
46765;SDS011;32527;51.986;5.842;2022-09-28T07:39:00;7.18;;;4.90;;
46765;SDS011;32527;51.986;5.842;2022-09-28T07:41:26;6.60;;;4.35;;
46765;SDS011;32527;51.986;5.842;2022-09-28T07:44:01;6.38;;;4.07;;
46765;SDS011;32527;51.986;5.842;2022-09-28T07:46:33;6.82;;;3.70;;
46765;SDS011;32527;51.986;5.842;2022-09-28T07:49:05;4.85;;;3.42;;
46765;SDS011;32527;51.986;5.842;2022-09-28T07:52:07;7.25;;;3.60;;
46765;SDS011;32527;51.986;5.842;2022-09-28T07:54:41;6.03;;;3.38;;
46765;SDS011;32527;51.986;5.842;2022-09-28T07:57:39;4.50;;;3.03;;
46765;SDS011;32527;51.986;5.842;2022-09-28T08:00:16;4.03;;;2.70;;
46765;SDS011;32527;51.986;5.842;2022-09-28T08:02:45;2.85;;;2.20;;
46765;SDS011;32527;51.986;5.842;2022-09-28T08:05:20;3.58;;;2.30;;
46765;SDS011;32527;51.986;5.842;2022-09-28T08:07:46;4.10;;;2.30;;
46765;SDS011;32527;51.986;5.842;2022-09-28T08:10:12;2.45;;;1.90;;
46765;SDS011;32527;51.986;5.842;2022-09-28T08:12:45;2.75;;;1.67;;
46765;SDS011;32527;51.986;5.842;2022-09-28T08:15:17;6.72;;;3.38;;
46765;SDS011;32527;51.986;5.842;2022-09-28T08:18:08;4.32;;;1.85;;
46765;SDS011;32527;51.986;5.842;2022-09-28T08:20:36;2.67;;;1.65;;
46765;SDS011;32527;51.986;5.842;2022-09-28T08:23:21;2.15;;;1.60;;
46765;SDS011;32527;51.986;5.842;2022-09-28T08:25:51;4.20;;;1.40;;
46765;SDS011;32527;51.986;5.842;2022-09-28T08:28:20;2.75;;;1.58;;
46765;SDS011;32527;51.986;5.842;2022-09-28T08:30:49;2.55;;;1.67;;
46765;SDS011;32527;51.986;5.842;2022-09-28T08:33:24;2.47;;;1.70;;
46765;SDS011;32527;51.986;5.842;2022-09-28T08:36:09;2.10;;;1.58;;
46765;SDS011;32527;51.986;5.842;2022-09-28T08:38:53;6.15;;;2.10;;
46765;SDS011;32527;51.986;5.842;2022-09-28T08:44:25;4.43;;;2.25;;
46765;SDS011;32527;51.986;5.842;2022-09-28T08:47:59;3.50;;;1.90;;
46765;SDS011;32527;51.986;5.842;2022-09-28T08:51:15;3.72;;;2.10;;
46765;SDS011;32527;51.986;5.842;2022-09-28T08:56:49;6.63;;;2.42;;
46765;SDS011;32527;51.986;5.842;2022-09-28T08:59:22;3.88;;;2.00;;
46765;SDS011;32527;51.986;5.842;2022-09-28T09:02:08;5.97;;;2.20;;
46765;SDS011;32527;51.986;5.842;2022-09-28T09:04:47;3.58;;;2.00;;
46765;SDS011;32527;51.986;5.842;2022-09-28T09:10:21;6.65;;;2.38;;
46765;SDS011;32527;51.986;5.842;2022-09-28T09:13:11;3.15;;;1.83;;
46765;SDS011;32527;51.986;5.842;2022-09-28T09:18:54;2.10;;;1.75;;
46765;SDS011;32527;51.986;5.842;2022-09-28T09:24:38;5.20;;;1.70;;
46765;SDS011;32527;51.986;5.842;2022-09-28T09:29:44;3.58;;;1.85;;
46765;SDS011;32527;51.986;5.842;2022-09-28T09:38:51;1.50;;;1.40;;
46765;SDS011;32527;51.986;5.842;2022-09-28T09:44:53;3.05;;;1.95;;
46765;SDS011;32527;51.986;5.842;2022-09-28T09:48:06;4.35;;;1.77;;
46765;SDS011;32527;51.986;5.842;2022-09-28T09:55:44;2.90;;;1.40;;
46765;SDS011;32527;51.986;5.842;2022-09-28T09:58:27;1.83;;;1.20;;
46765;SDS011;32527;51.986;5.842;2022-09-28T10:01:19;1.65;;;1.00;;
46765;SDS011;32527;51.986;5.842;2022-09-28T10:04:16;1.73;;;1.00;;
46765;SDS011;32527;51.986;5.842;2022-09-28T10:07:22;4.32;;;1.20;;
46765;SDS011;32527;51.986;5.842;2022-09-28T10:10:08;2.55;;;1.35;;
46765;SDS011;32527;51.986;5.842;2022-09-28T10:13:05;2.20;;;1.15;;
46765;SDS011;32527;51.986;5.842;2022-09-28T10:15:33;1.77;;;1.10;;
46765;SDS011;32527;51.986;5.842;2022-09-28T10:18:20;3.45;;;1.65;;
46765;SDS011;32527;51.986;5.842;2022-09-28T10:21:05;2.22;;;0.80;;
46765;SDS011;32527;51.986;5.842;2022-09-28T10:23:56;2.70;;;1.00;;
46765;SDS011;32527;51.986;5.842;2022-09-28T10:26:36;2.25;;;0.95;;
46765;SDS011;32527;51.986;5.842;2022-09-28T10:29:21;1.50;;;0.98;;
46765;SDS011;32527;51.986;5.842;2022-09-28T10:31:51;1.40;;;0.95;;
46765;SDS011;32527;51.986;5.842;2022-09-28T10:34:29;0.95;;;0.80;;
46765;SDS011;32527;51.986;5.842;2022-09-28T10:36:58;0.93;;;0.73;;
46765;SDS011;32527;51.986;5.842;2022-09-28T10:39:42;1.92;;;0.95;;
46765;SDS011;32527;51.986;5.842;2022-09-28T10:42:21;0.80;;;0.80;;
46765;SDS011;32527;51.986;5.842;2022-09-28T10:44:55;2.90;;;0.90;;
46765;SDS011;32527;51.986;5.842;2022-09-28T10:47:36;1.60;;;0.80;;
46765;SDS011;32527;51.986;5.842;2022-09-28T10:50:12;2.28;;;1.20;;
46765;SDS011;32527;51.986;5.842;2022-09-28T10:52:53;0.93;;;0.75;;
46765;SDS011;32527;51.986;5.842;2022-09-28T10:56:25;3.40;;;0.98;;
46765;SDS011;32527;51.986;5.842;2022-09-28T10:58:59;0.60;;;0.60;;
46765;SDS011;32527;51.986;5.842;2022-09-28T11:01:40;2.42;;;0.85;;
46765;SDS011;32527;51.986;5.842;2022-09-28T11:04:06;1.10;;;0.90;;
46765;SDS011;32527;51.986;5.842;2022-09-28T11:06:43;4.28;;;0.77;;
46765;SDS011;32527;51.986;5.842;2022-09-28T11:09:27;0.63;;;0.60;;
46765;SDS011;32527;51.986;5.842;2022-09-28T11:14:25;2.47;;;1.27;;
46765;SDS011;32527;51.986;5.842;2022-09-28T11:19:52;0.98;;;0.47;;
46765;SDS011;32527;51.986;5.842;2022-09-28T11:22:23;0.73;;;0.43;;
46765;SDS011;32527;51.986;5.842;2022-09-28T11:30:28;1.98;;;0.70;;
46765;SDS011;32527;51.986;5.842;2022-09-28T11:33:41;0.55;;;0.47;;
46765;SDS011;32527;51.986;5.842;2022-09-28T11:36:43;1.75;;;0.40;;
46765;SDS011;32527;51.986;5.842;2022-09-28T11:39:15;1.48;;;0.65;;
46765;SDS011;32527;51.986;5.842;2022-09-28T11:41:54;0.20;;;0.20;;
46765;SDS011;32527;51.986;5.842;2022-09-28T11:52:40;1.90;;;0.85;;
46765;SDS011;32527;51.986;5.842;2022-09-28T11:58:54;2.72;;;0.85;;
46765;SDS011;32527;51.986;5.842;2022-09-28T12:04:34;5.53;;;1.20;;
46765;SDS011;32527;51.986;5.842;2022-09-28T12:07:17;2.85;;;0.73;;
46765;SDS011;32527;51.986;5.842;2022-09-28T12:12:32;1.70;;;0.82;;
46765;SDS011;32527;51.986;5.842;2022-09-28T12:15:12;1.23;;;0.70;;
46765;SDS011;32527;51.986;5.842;2022-09-28T12:17:51;1.70;;;0.90;;
46765;SDS011;32527;51.986;5.842;2022-09-28T12:20:28;3.60;;;0.90;;
46765;SDS011;32527;51.986;5.842;2022-09-28T12:25:56;4.68;;;1.52;;
46765;SDS011;32527;51.986;5.842;2022-09-28T12:28:38;1.70;;;0.98;;
46765;SDS011;32527;51.986;5.842;2022-09-28T12:33:40;1.15;;;0.68;;
46765;SDS011;32527;51.986;5.842;2022-09-28T12:36:29;3.97;;;0.88;;
46765;SDS011;32527;51.986;5.842;2022-09-28T12:42:13;0.70;;;0.65;;
46765;SDS011;32527;51.986;5.842;2022-09-28T12:55:51;1.23;;;0.70;;
46765;SDS011;32527;51.986;5.842;2022-09-28T12:58:45;1.02;;;0.63;;
46765;SDS011;32527;51.986;5.842;2022-09-28T13:01:44;1.85;;;0.90;;
46765;SDS011;32527;51.986;5.842;2022-09-28T13:07:13;0.65;;;0.63;;
46765;SDS011;32527;51.986;5.842;2022-09-28T13:10:16;0.85;;;0.60;;
46765;SDS011;32527;51.986;5.842;2022-09-28T13:12:56;1.35;;;0.75;;
46765;SDS011;32527;51.986;5.842;2022-09-28T13:23:20;5.15;;;1.38;;
46765;SDS011;32527;51.986;5.842;2022-09-28T13:25:56;5.07;;;1.93;;
46765;SDS011;32527;51.986;5.842;2022-09-28T13:28:38;1.40;;;0.82;;
46765;SDS011;32527;51.986;5.842;2022-09-28T13:31:07;3.08;;;1.10;;
46765;SDS011;32527;51.986;5.842;2022-09-28T13:33:35;1.15;;;0.80;;
46765;SDS011;32527;51.986;5.842;2022-09-28T13:36:33;5.20;;;1.42;;
46765;SDS011;32527;51.986;5.842;2022-09-28T13:39:01;3.75;;;1.40;;
46765;SDS011;32527;51.986;5.842;2022-09-28T13:52:05;2.60;;;1.63;;
46765;SDS011;32527;51.986;5.842;2022-09-28T13:57:40;5.60;;;1.63;;
46765;SDS011;32527;51.986;5.842;2022-09-28T14:00:15;3.22;;;1.88;;
46765;SDS011;32527;51.986;5.842;2022-09-28T14:02:50;6.68;;;2.47;;
46765;SDS011;32527;51.986;5.842;2022-09-28T14:08:34;2.20;;;1.80;;
46765;SDS011;32527;51.986;5.842;2022-09-28T14:14:02;2.60;;;1.75;;
46765;SDS011;32527;51.986;5.842;2022-09-28T14:16:29;2.67;;;1.88;;
46765;SDS011;32527;51.986;5.842;2022-09-28T14:19:00;2.42;;;1.80;;
46765;SDS011;32527;51.986;5.842;2022-09-28T14:24:29;2.38;;;1.85;;
46765;SDS011;32527;51.986;5.842;2022-09-28T14:29:28;6.20;;;2.40;;
46765;SDS011;32527;51.986;5.842;2022-09-28T14:31:57;4.93;;;2.40;;
46765;SDS011;32527;51.986;5.842;2022-09-28T14:34:46;5.70;;;3.03;;
46765;SDS011;32527;51.986;5.842;2022-09-28T14:37:31;4.68;;;2.53;;
46765;SDS011;32527;51.986;5.842;2022-09-28T14:40:22;6.55;;;2.92;;
46765;SDS011;32527;51.986;5.842;2022-09-28T14:43:19;5.00;;;2.53;;
46765;SDS011;32527;51.986;5.842;2022-09-28T14:45:49;3.03;;;1.77;;
46765;SDS011;32527;51.986;5.842;2022-09-28T14:53:50;4.28;;;1.65;;
46765;SDS011;32527;51.986;5.842;2022-09-28T14:56:34;4.00;;;1.75;;
46765;SDS011;32527;51.986;5.842;2022-09-28T14:59:11;4.10;;;1.60;;
46765;SDS011;32527;51.986;5.842;2022-09-28T15:01:43;6.30;;;1.83;;
46765;SDS011;32527;51.986;5.842;2022-09-28T15:04:14;2.33;;;1.67;;
46765;SDS011;32527;51.986;5.842;2022-09-28T15:06:44;2.45;;;1.83;;
46765;SDS011;32527;51.986;5.842;2022-09-28T15:09:27;1.85;;;1.50;;
46765;SDS011;32527;51.986;5.842;2022-09-28T15:12:14;1.48;;;1.30;;
46765;SDS011;32527;51.986;5.842;2022-09-28T15:14:51;3.47;;;1.65;;
46765;SDS011;32527;51.986;5.842;2022-09-28T15:17:22;1.35;;;1.23;;
46765;SDS011;32527;51.986;5.842;2022-09-28T15:22:28;1.73;;;1.63;;
46765;SDS011;32527;51.986;5.842;2022-09-28T15:25:00;3.20;;;1.42;;
46765;SDS011;32527;51.986;5.842;2022-09-28T15:27:34;2.63;;;1.60;;
46765;SDS011;32527;51.986;5.842;2022-09-28T15:32:50;1.90;;;1.17;;
46765;SDS011;32527;51.986;5.842;2022-09-28T15:35:19;2.17;;;1.42;;
46765;SDS011;32527;51.986;5.842;2022-09-28T15:37:46;1.30;;;1.17;;
46765;SDS011;32527;51.986;5.842;2022-09-28T15:40:17;3.78;;;2.60;;
46765;SDS011;32527;51.986;5.842;2022-09-28T15:42:47;5.55;;;2.90;;
46765;SDS011;32527;51.986;5.842;2022-09-28T15:45:23;6.43;;;3.65;;
46765;SDS011;32527;51.986;5.842;2022-09-28T15:47:52;4.50;;;2.60;;
46765;SDS011;32527;51.986;5.842;2022-09-28T15:50:31;3.70;;;2.20;;
46765;SDS011;32527;51.986;5.842;2022-09-28T15:52:59;4.00;;;1.90;;
46765;SDS011;32527;51.986;5.842;2022-09-28T15:55:30;2.40;;;1.70;;
46765;SDS011;32527;51.986;5.842;2022-09-28T16:00:48;3.75;;;1.88;;
46765;SDS011;32527;51.986;5.842;2022-09-28T16:03:35;4.20;;;2.17;;
46765;SDS011;32527;51.986;5.842;2022-09-28T16:06:08;4.45;;;1.88;;
46765;SDS011;32527;51.986;5.842;2022-09-28T16:11:19;3.53;;;2.50;;
46765;SDS011;32527;51.986;5.842;2022-09-28T16:16:47;4.47;;;2.13;;
46765;SDS011;32527;51.986;5.842;2022-09-28T16:19:24;3.38;;;2.33;;
46765;SDS011;32527;51.986;5.842;2022-09-28T16:21:59;4.32;;;2.70;;
46765;SDS011;32527;51.986;5.842;2022-09-28T16:24:28;5.80;;;2.78;;
46765;SDS011;32527;51.986;5.842;2022-09-28T16:27:02;4.53;;;2.80;;
46765;SDS011;32527;51.986;5.842;2022-09-28T16:29:37;4.78;;;2.88;;
46765;SDS011;32527;51.986;5.842;2022-09-28T16:37:36;6.72;;;3.25;;
46765;SDS011;32527;51.986;5.842;2022-09-28T16:40:05;7.47;;;3.75;;
46765;SDS011;32527;51.986;5.842;2022-09-28T16:42:33;6.72;;;3.95;;
46765;SDS011;32527;51.986;5.842;2022-09-28T16:45:02;10.68;;;3.17;;
46765;SDS011;32527;51.986;5.842;2022-09-28T16:47:29;8.50;;;3.53;;
46765;SDS011;32527;51.986;5.842;2022-09-28T16:49:58;4.50;;;2.75;;
46765;SDS011;32527;51.986;5.842;2022-09-28T16:52:26;4.50;;;2.33;;
46765;SDS011;32527;51.986;5.842;2022-09-28T16:57:56;6.18;;;2.15;;
46765;SDS011;32527;51.986;5.842;2022-09-28T17:00:23;4.45;;;2.40;;
46765;SDS011;32527;51.986;5.842;2022-09-28T17:02:50;4.22;;;2.25;;
46765;SDS011;32527;51.986;5.842;2022-09-28T17:05:16;5.30;;;2.30;;
46765;SDS011;32527;51.986;5.842;2022-09-28T17:07:59;2.83;;;2.33;;
46765;SDS011;32527;51.986;5.842;2022-09-28T17:10:34;5.45;;;2.53;;
46765;SDS011;32527;51.986;5.842;2022-09-28T17:13:04;3.72;;;2.40;;
46765;SDS011;32527;51.986;5.842;2022-09-28T17:15:29;5.53;;;3.22;;
46765;SDS011;32527;51.986;5.842;2022-09-28T17:17:55;5.85;;;2.83;;
46765;SDS011;32527;51.986;5.842;2022-09-28T17:20:22;8.18;;;3.22;;
46765;SDS011;32527;51.986;5.842;2022-09-28T17:22:53;5.93;;;3.80;;
46765;SDS011;32527;51.986;5.842;2022-09-28T17:25:20;7.35;;;3.78;;
46765;SDS011;32527;51.986;5.842;2022-09-28T17:27:47;9.10;;;5.00;;
46765;SDS011;32527;51.986;5.842;2022-09-28T17:30:14;7.70;;;4.53;;
46765;SDS011;32527;51.986;5.842;2022-09-28T17:32:40;14.38;;;6.60;;
46765;SDS011;32527;51.986;5.842;2022-09-28T17:35:12;10.98;;;7.25;;
46765;SDS011;32527;51.986;5.842;2022-09-28T17:37:40;9.25;;;6.60;;
46765;SDS011;32527;51.986;5.842;2022-09-28T17:40:11;10.70;;;6.70;;
46765;SDS011;32527;51.986;5.842;2022-09-28T17:42:45;9.27;;;6.38;;
46765;SDS011;32527;51.986;5.842;2022-09-28T17:45:12;8.68;;;5.72;;
46765;SDS011;32527;51.986;5.842;2022-09-28T17:47:39;9.00;;;6.13;;
46765;SDS011;32527;51.986;5.842;2022-09-28T17:50:11;8.05;;;5.63;;
46765;SDS011;32527;51.986;5.842;2022-09-28T17:52:42;10.75;;;5.18;;
46765;SDS011;32527;51.986;5.842;2022-09-28T17:55:08;6.82;;;4.45;;
46765;SDS011;32527;51.986;5.842;2022-09-28T17:57:34;6.78;;;4.15;;
46765;SDS011;32527;51.986;5.842;2022-09-28T18:00:00;6.85;;;4.10;;
46765;SDS011;32527;51.986;5.842;2022-09-28T18:02:26;6.53;;;3.72;;
46765;SDS011;32527;51.986;5.842;2022-09-28T18:04:55;7.18;;;4.28;;
46765;SDS011;32527;51.986;5.842;2022-09-28T18:07:21;6.32;;;4.65;;
46765;SDS011;32527;51.986;5.842;2022-09-28T18:09:51;7.07;;;3.80;;
46765;SDS011;32527;51.986;5.842;2022-09-28T18:12:20;7.57;;;4.25;;
46765;SDS011;32527;51.986;5.842;2022-09-28T18:14:49;10.00;;;5.05;;